createdAt,value
2023-03-08T00:06:48.942Z,11.80
2023-03-08T00:21:53.390Z,11.80
2023-03-08T00:36:57.877Z,11.60
2023-03-08T00:52:02.566Z,11.70
2023-03-08T01:07:07.123Z,11.60
2023-03-08T01:22:12.053Z,11.70
2023-03-08T01:37:16.512Z,11.40
2023-03-08T01:52:26.069Z,11.50
2023-03-08T02:07:31.587Z,11.10
2023-03-08T02:22:40.573Z,11.00
2023-03-08T02:37:45.174Z,11.20
2023-03-08T02:52:49.627Z,11.40
2023-03-08T03:07:55.304Z,11.30
2023-03-08T03:23:00.965Z,11.50
2023-03-08T03:38:16.418Z,11.40
2023-03-08T03:53:22.825Z,11.50
2023-03-08T04:08:30.313Z,11.40
2023-03-08T04:23:36.515Z,11.30
2023-03-08T04:38:43.498Z,11.30
2023-03-08T04:53:48.765Z,11.30
2023-03-08T05:08:53.686Z,10.90
2023-03-08T05:24:01.397Z,10.90
2023-03-08T05:39:11.195Z,10.80
2023-03-08T05:54:23.172Z,11.10
2023-03-08T06:09:31.305Z,11.40
2023-03-08T06:24:36.711Z,11.30
2023-03-08T06:39:45.103Z,11.60
2023-03-08T06:54:49.755Z,11.60
2023-03-08T07:09:54.286Z,11.60
2023-03-08T07:24:58.786Z,12.00
2023-03-08T07:40:04.538Z,12.20
2023-03-08T07:55:11.299Z,12.30
2023-03-08T08:10:15.838Z,12.50
2023-03-08T08:25:21.361Z,13.00
2023-03-08T08:40:27.377Z,13.10
2023-03-08T08:55:32.767Z,13.40
2023-03-08T09:10:40.463Z,13.40
2023-03-08T09:25:44.994Z,13.40
2023-03-08T09:40:57.305Z,13.90
2023-03-08T09:56:05.148Z,13.90
2023-03-08T10:11:17.648Z,14.20
2023-03-08T10:26:22.162Z,14.30
2023-03-08T10:41:28.159Z,14.70
2023-03-08T10:56:38.364Z,15.20
2023-03-08T11:11:43.852Z,15.50
2023-03-08T11:27:02.006Z,15.60
2023-03-08T11:42:15.392Z,15.90
2023-03-08T11:57:20.655Z,16.10
2023-03-08T12:12:31.949Z,15.80
2023-03-08T12:27:42.197Z,15.80
2023-03-08T12:42:46.790Z,15.80
2023-03-08T12:57:53.695Z,16.00
2023-03-08T13:13:31.110Z,16.20
2023-03-08T13:28:47.794Z,16.10
2023-03-08T13:44:01.871Z,15.80
2023-03-08T13:59:06.439Z,15.50
2023-03-08T14:14:23.711Z,15.90
2023-03-08T14:29:29.750Z,15.30
2023-03-08T14:44:35.877Z,15.00
2023-03-08T14:59:43.154Z,15.10
2023-03-08T15:14:47.594Z,14.50
2023-03-08T15:29:52.174Z,14.40
2023-03-08T15:44:56.590Z,14.90
2023-03-08T16:00:01.048Z,15.50
2023-03-08T16:15:06.457Z,15.20
2023-03-08T16:30:12.564Z,15.00
2023-03-08T16:45:17.392Z,14.80
2023-03-08T17:00:22.826Z,14.90
2023-03-08T17:15:27.325Z,14.90
2023-03-08T17:30:32.341Z,14.30
2023-03-08T17:45:36.755Z,14.30
2023-03-08T18:00:41.164Z,14.60
2023-03-08T18:15:45.656Z,14.50
2023-03-08T18:30:50.142Z,14.90
2023-03-08T18:45:56.555Z,15.20
2023-03-08T19:01:02.889Z,15.30
2023-03-08T19:16:16.526Z,14.90
2023-03-08T19:31:20.960Z,15.00
2023-03-08T19:46:25.614Z,14.90
2023-03-08T20:01:30.321Z,14.80
2023-03-08T20:16:35.299Z,14.50
2023-03-08T20:31:39.892Z,15.00
2023-03-08T20:46:44.987Z,14.80
2023-03-08T21:01:49.767Z,14.80
2023-03-08T21:16:54.399Z,14.60
2023-03-08T21:31:59.399Z,14.30
2023-03-08T21:47:03.920Z,13.90
2023-03-08T22:02:10.957Z,13.30
2023-03-08T22:17:15.407Z,13.10
2023-03-08T22:32:20.011Z,13.00
2023-03-08T22:47:24.493Z,13.50
2023-03-08T23:02:31.192Z,13.40
2023-03-08T23:17:35.700Z,13.20
2023-03-08T23:32:42.973Z,12.90
2023-03-08T23:47:47.587Z,12.90
